Latest Weather Observations for Kuitpo

IDS60901

Issued at 2:41 am CST Wednesday 6 May 2015 (issued every 10 minutes, with the page automatically refreshed every 10 minutes)

About weather observations | Map of Adelaide area stations | Latest observations for Adelaide area | Other Formats
Station Details ID: 023887 Name: KUITPO FOREST RESERVE Lat: -35.17 Lon: 138.68 Height: 365.0 m
Data from the previous 72 hours. | See also: Recent months at Kuitpo
Date/Time
CST
Tmp

°C
App
Tmp
°C
Dew
Point
°C
Rel
Hum
%
Delta-T

°C
Wind Press
QNH
hPa
Press
MSL
hPa
Rain
since
9 am
mm
Dir
 
Spd
km/h
Gust
km/h
Spd
kts
Gust
kts
06/02:30am 9.3 5.6 9.3 100 0.0 W 19 32 10 17 1013.9 1013.6 8.2
06/02:00am 9.0 5.0 9.0 100 0.0 WSW 20 35 11 19 1014.0 1013.7 8.2
06/01:30am 8.8 4.7 8.8 100 0.0 WSW 20 35 11 19 1014.0 1013.7 8.0
06/01:00am 8.8 2.8 8.8 100 0.0 W 30 52 16 28 1014.1 1013.8 8.0
06/12:59am 8.9 3.3 8.9 100 0.0 W 28 52 15 28 1014.2 1014.0 8.0
06/12:30am 8.7 4.8 8.7 100 0.0 W 19 28 10 15 1014.0 1013.7 8.0
06/12:00am 8.5 4.4 8.5 100 0.0 W 20 28 11 15 1013.8 1013.5 8.0
 
Date/Time
CST
Tmp

°C
App
Tmp
°C
Dew
Point
°C
Rel
Hum
%
Delta-T

°C
Wind Press
QNH
hPa
Press
MSL
hPa
Rain
since
9 am
mm
Dir
 
Spd
km/h
Gust
km/h
Spd
kts
Gust
kts
05/11:30pm 8.2 4.6 8.2 100 0.0 W 17 28 9 15 1013.9 1013.6 7.6
05/11:00pm 8.0 3.4 8.0 100 0.0 W 22 39 12 21 1013.9 1013.6 7.6
05/10:30pm 8.2 4.2 8.2 100 0.0 WSW 19 28 10 15 1013.9 1013.6 7.4
05/10:00pm 8.8 4.7 8.8 100 0.0 WSW 20 30 11 16 1013.7 1013.4 7.4
05/09:30pm 8.2 3.6 8.2 100 0.0 WSW 22 33 12 18 1013.2 1013.0 7.4
05/09:00pm 8.0 3.9 8.0 100 0.0 W 19 26 10 14 1013.0 1012.8 7.4
05/08:30pm 8.1 3.5 8.1 100 0.0 WSW 22 37 12 20 1012.9 1012.7 7.4
05/08:00pm 8.0 3.0 8.0 100 0.0 WSW 24 37 13 20 1012.4 1012.2 6.8
05/07:30pm 7.9 3.2 7.9 100 0.0 W 22 33 12 18 1012.1 1011.9 6.8
05/07:09pm 8.7 2.9 8.1 96 0.3 W 28 52 15 28 1012.0 1011.8 5.4
05/07:00pm 8.6 2.4 7.7 94 0.4 W 30 46 16 25 1011.7 1011.4 5.4
05/06:31pm 9.4 3.2 6.3 81 1.5 WSW 28 48 15 26 1011.1 1010.8 5.4
05/06:30pm 9.2 3.8 6.5 83 1.3 WSW 24 44 13 24 1011.1 1010.8 5.4
05/06:00pm 8.8 3.4 8.0 95 0.4 WSW 26 44 14 24 1010.7 1010.4 5.4
05/05:30pm 9.9 2.9 6.1 77 1.8 W 32 52 17 28 1009.9 1009.7 5.0
05/05:00pm 10.0 3.4 7.8 86 1.1 W 32 54 17 29 1009.7 1009.5 5.0
05/04:30pm 9.6 3.2 6.9 83 1.3 WSW 30 48 16 26 1009.6 1009.4 5.0
05/04:16pm 9.8 3.7 8.2 90 0.8 W 30 48 16 26 1009.6 1009.4 5.0
05/04:00pm 9.4 4.4 9.4 100 0.0 W 26 43 14 23 1009.6 1009.4 5.0
05/03:30pm 8.1 1.4 8.1 100 0.0 W 33 56 18 30 1009.3 1009.0 5.0
05/03:00pm 10.6 3.7 7.1 79 1.7 W 33 54 18 29 1008.9 1008.6 3.8
05/02:30pm 8.8 2.3 8.8 100 0.0 W 33 57 18 31 1008.7 1008.4 3.8
05/02:00pm 8.4 0.9 8.0 97 0.2 W 37 65 20 35 1008.4 1008.1 3.8
05/01:30pm 11.0 3.6 6.9 76 2.0 W 35 61 19 33 1007.8 1007.5 3.4
05/01:00pm 10.4 3.0 6.9 79 1.7 W 35 61 19 33 1007.6 1007.3 3.4
05/12:30pm 10.5 4.0 9.1 91 0.7 W 33 56 18 30 1007.4 1007.2 3.4
05/12:00pm 11.3 4.1 7.6 78 1.8 W 35 65 19 35 1007.3 1007.1 2.0
05/11:30am 10.4 3.7 9.5 94 0.5 W 35 56 19 30 1007.3 1007.1 2.0
05/11:08am 9.6 3.8 9.6 100 0.0 W 30 70 16 38 1007.0 1006.7 2.0
05/11:01am 9.1 3.6 9.1 100 0.0 W 28 50 15 27 1006.9 1006.6 2.0
05/11:00am 9.0 3.5 9.0 100 0.0 W 28 41 15 22 1007.0 1006.7 2.0
05/10:30am 7.6 -0.7 7.6 100 0.0 W 41 67 22 36 1006.5 1006.2 1.8
05/10:00am 9.6 3.5 9.6 100 0.0 W 32 50 17 27 1005.7 1005.4 0.4
05/09:30am 8.7 2.7 8.7 100 0.0 WNW 30 48 16 26 1005.2 1004.9 0.0
05/09:00am 7.5 -0.9 7.5 100 0.0 W 41 70 22 38 1005.0 1004.7 10.4
05/08:30am 8.6 2.0 8.6 100 0.0 W 33 63 18 34 1004.1 1003.8 8.2
05/08:00am 9.0 1.8 9.0 100 0.0 W 37 59 20 32 1003.3 1003.0 7.2
05/07:30am 8.2 -0.4 8.2 100 0.0 W 43 67 23 36 1003.1 1002.8 7.2
05/07:00am 8.8 1.1 8.8 100 0.0 WNW 39 63 21 34 1002.6 1002.3 7.2
05/06:30am 8.8 1.5 8.8 100 0.0 W 37 61 20 33 1002.2 1001.8 4.4
05/06:10am 9.8 2.6 9.2 96 0.3 WNW 37 82 20 44 1002.2 1001.8 3.2
05/06:00am 10.7 3.0 8.8 88 1.0 WNW 39 63 21 34 1001.9 1001.5 3.0
05/05:30am 10.5 4.4 10.5 100 0.0 WNW 33 61 18 33 1002.2 1001.8 3.0
05/05:00am 9.9 3.8 9.9 100 0.0 WNW 32 63 17 34 1002.2 1001.8 3.0
05/04:30am 9.9 3.3 9.9 100 0.0 WNW 35 54 19 29 1002.5 1002.2 2.2
05/04:00am 8.5 2.5 8.5 100 0.0 WNW 30 48 16 26 1002.4 1002.0 1.8
05/03:50am 8.2 -1.0 8.1 99 0.0 WNW 46 87 25 47 1002.6 1002.3 1.8
05/03:46am 10.1 1.7 9.0 93 0.6 WNW 43 87 23 47 1002.2 1001.8 0.6
05/03:45am 11.1 3.3 9.9 92 0.6 WNW 41 87 22 47 1002.1 1001.7 0.6
05/03:30am 11.8 5.0 10.7 93 0.6 WNW 37 63 20 34 1002.0 1001.6 0.6
05/03:00am 11.2 5.2 10.1 93 0.6 WNW 32 63 17 34 1002.7 1002.4 0.6
05/02:30am 12.5 5.6 10.4 87 1.1 NW 37 65 20 35 1002.4 1002.0 0.4
05/02:00am 12.8 7.1 11.0 89 1.0 WNW 32 57 17 31 1002.8 1002.5 0.4
05/01:30am 12.9 7.7 11.5 91 0.8 WNW 30 50 16 27 1003.1 1002.8 0.4
05/01:00am 13.1 6.3 10.8 86 1.2 WNW 37 63 20 34 1003.3 1003.0 0.2
05/12:30am 13.4 6.8 11.3 87 1.1 WNW 37 69 20 37 1003.2 1002.9 0.2
05/12:00am 14.5 7.5 10.1 75 2.3 WNW 37 59 20 32 1003.2 1002.9 0.2
 
Date/Time
CST
Tmp

°C
App
Tmp
°C
Dew
Point
°C
Rel
Hum
%
Delta-T

°C
Wind Press
QNH
hPa
Press
MSL
hPa
Rain
since
9 am
mm
Dir
 
Spd
km/h
Gust
km/h
Spd
kts
Gust
kts
04/11:45pm 14.6 7.5 11.0 79 1.9 WNW 39 74 21 40 1003.3 1003.0 0.2
04/11:30pm 14.9 9.5 12.2 84 1.5 WNW 32 54 17 29 1003.3 1003.0 0.2
04/11:13pm 15.1 10.1 13.5 90 0.9 WNW 32 52 17 28 1003.6 1003.3 0.2
04/11:00pm 15.2 10.6 13.4 89 1.0 WNW 30 46 16 25 1003.8 1003.5 0.2
04/10:46pm 15.4 11.5 14.3 93 0.6 WNW 28 46 15 25 1003.9 1003.6 0.2
04/10:30pm 15.6 12.4 14.3 92 0.8 NW 24 43 13 23 1004.2 1003.9 0.2
04/10:00pm 16.0 11.2 12.9 82 1.7 WNW 30 52 16 28 1004.2 1003.9 0.2
04/09:32pm 16.6 11.8 11.7 73 2.7 WNW 28 46 15 25 1003.8 1003.5 0.2
04/09:30pm 16.6 12.1 11.5 72 2.8 WNW 26 46 14 25 1003.8 1003.5 0.2
04/09:00pm 17.6 12.5 10.7 64 3.8 WNW 28 46 15 25 1003.2 1002.9 0.2
04/08:34pm 19.0 12.9 9.8 55 5.0 NW 32 50 17 27 1003.3 1003.0 0.2
04/08:30pm 19.2 13.5 9.7 54 5.2 NW 30 44 16 24 1003.2 1002.9 0.2
04/08:09pm 18.6 13.2 9.4 55 4.9 NNW 28 48 15 26 1003.2 1002.9 0.2
04/08:00pm 18.7 13.2 9.2 54 5.1 NNW 28 43 15 23 1003.3 1003.0 0.2
04/07:30pm 19.2 14.5 7.9 48 5.9 NW 22 32 12 17 1004.0 1003.7 0.2
04/07:00pm 18.9 13.9 8.0 49 5.7 NW 24 43 13 23 1004.1 1003.8 0.2
04/06:30pm 19.7 14.9 5.7 40 7.1 NW 20 35 11 19 1004.0 1003.7 0.0
04/06:00pm 19.6 14.2 6.3 42 6.8 NNW 24 46 13 25 1003.9 1003.6 0.0
04/05:30pm 20.9 15.5 4.5 34 8.2 NNW 22 35 12 19 1003.2 1002.9 0.0
04/05:00pm 21.7 15.4 3.9 31 8.8 NNW 26 48 14 26 1003.6 1003.3 0.0
04/04:32pm 21.9 15.3 4.0 31 8.8 NNW 28 48 15 26 1003.5 1003.2 0.0
04/04:30pm 21.8 15.6 4.4 32 8.7 NNW 26 43 14 23 1003.6 1003.3 0.0
04/04:00pm 21.3 14.1 4.8 34 8.2 NNW 32 52 17 28 1003.6 1003.3 0.0
04/03:30pm 22.9 15.5 3.9 29 9.5 NNW 32 50 17 27 1003.5 1003.2 0.0
04/03:00pm 23.2 16.7 4.7 30 9.4 NNW 28 52 15 28 1003.4 1003.1 0.0
04/02:30pm 22.5 14.9 4.1 30 9.2 NNW 33 63 18 34 1003.4 1003.1 0.0
04/02:08pm 21.9 15.4 4.9 33 8.5 NNW 28 52 15 28 1003.8 1003.5 0.0
04/02:00pm 21.9 16.3 5.3 34 8.4 NNW 24 37 13 20 1004.0 1003.7 0.0
04/01:31pm 23.2 15.9 4.7 30 9.3 NNW 32 50 17 27 1004.4 1004.1 0.0
04/01:30pm 23.2 16.1 5.6 32 9.1 NNW 32 48 17 26 1004.4 1004.1 0.0
04/01:00pm 23.0 16.2 5.0 31 9.1 NNW 30 61 16 33 1005.2 1004.9 0.0
04/12:30pm 22.8 15.3 4.3 30 9.3 NNW 33 56 18 30 1006.1 1005.8 0.0
04/12:00pm 22.3 14.4 4.4 31 9.0 NNW 35 63 19 34 1007.0 1006.7 0.0
04/11:40am 22.2 15.6 4.3 31 8.9 NNW 28 48 15 26 1007.1 1006.8 0.0
04/11:30am 22.2 16.3 5.6 34 8.5 N 26 52 14 28 1007.4 1007.2 0.0
04/11:08am 20.5 13.7 3.3 32 8.3 N 28 54 15 29 1007.7 1007.4 0.0
04/11:00am 21.6 15.7 3.8 31 8.7 N 24 52 13 28 1007.9 1007.6 0.0
04/10:30am 21.6 14.8 3.3 30 8.9 NNW 28 59 15 32 1008.7 1008.4 0.0
04/10:18am 21.3 14.7 4.0 32 8.5 N 28 50 15 27 1008.9 1008.6 0.0
04/10:00am 19.8 14.6 3.5 34 7.9 N 20 46 11 25 1009.0 1008.7 0.0
04/09:30am 20.2 15.3 5.1 37 7.5 N 20 41 11 22 1009.6 1009.4 0.0
04/09:00am 19.2 14.3 4.2 37 7.3 N 19 35 10 19 1010.1 1009.9 0.0
04/08:30am 18.9 14.5 4.7 39 7.0 N 17 32 9 17 1010.8 1010.5 0.0
04/08:00am 17.9 13.3 5.8 45 6.0 NNW 19 35 10 19 1010.8 1010.5 0.0
04/07:30am 16.7 12.8 7.1 53 4.9 NNW 17 30 9 16 1010.8 1010.5 0.0
04/07:00am 16.2 12.1 7.9 58 4.3 NNW 19 28 10 15 1010.8 1010.5 0.0
04/06:30am 16.3 12.2 8.0 58 4.3 NNW 19 33 10 18 1010.8 1010.5 0.0
04/06:00am 16.1 12.0 7.8 58 4.3 NNW 19 30 10 16 1011.1 1010.8 0.0
04/05:30am 16.0 11.8 7.5 57 4.3 NNW 19 32 10 17 1011.3 1011.0 0.0
04/05:00am 16.1 11.6 7.1 55 4.5 NNW 20 28 11 15 1011.4 1011.1 0.0
04/04:30am 16.1 11.6 6.8 54 4.7 NNW 20 32 11 17 1011.6 1011.3 0.0
04/04:00am 16.1 11.8 7.1 55 4.5 NNW 19 28 10 15 1011.8 1011.5 0.0
04/03:30am 15.8 12.1 7.8 59 4.1 NNW 17 28 9 15 1012.0 1011.8 0.0
04/03:00am 14.6 11.8 8.5 67 3.1 N 13 24 7 13 1012.4 1012.2 0.0
04/02:30am 13.4 11.6 9.3 76 2.1 N 9 13 5 7 1012.8 1012.6 0.0
04/02:00am 13.8 11.2 9.5 75 2.2 NNE 13 17 7 9 1013.1 1012.9 0.0
04/01:30am 13.3 10.8 9.7 79 1.9 NNE 13 17 7 9 1013.2 1013.0 0.0
04/01:00am 11.6 9.3 10.5 93 0.6 NNE 13 17 7 9 1013.7 1013.4 0.0
04/12:30am 11.1 8.4 10.2 94 0.5 NNE 15 22 8 12 1013.6 1013.3 0.0
04/12:00am 11.0 7.8 9.9 93 0.6 NE 17 22 9 12 1013.9 1013.6 0.0
 
Date/Time
CST
Tmp

°C
App
Tmp
°C
Dew
Point
°C
Rel
Hum
%
Delta-T

°C
Wind Press
QNH
hPa
Press
MSL
hPa
Rain
since
9 am
mm
Dir
 
Spd
km/h
Gust
km/h
Spd
kts
Gust
kts
03/11:30pm 11.3 8.0 9.6 89 0.9 NE 17 28 9 15 1014.2 1014.0 0.0
03/11:00pm 11.7 8.0 9.4 86 1.2 NE 19 26 10 14 1014.7 1014.5 0.0
03/10:30pm 11.8 8.2 9.9 88 1.0 NE 19 26 10 14 1015.3 1015.1 0.0
03/10:00pm 11.3 7.7 10.0 92 0.7 NE 19 26 10 14 1015.6 1015.4 0.0
03/09:30pm 11.3 8.3 10.5 95 0.4 NE 17 24 9 13 1015.7 1015.5 0.0
03/09:00pm 11.7 8.7 10.6 93 0.6 ENE 17 22 9 12 1015.9 1015.7 0.0
03/08:30pm 12.0 9.4 10.7 92 0.7 ENE 15 20 8 11 1016.0 1015.8 0.0
03/08:00pm 13.1 10.8 10.5 84 1.4 ENE 13 17 7 9 1016.3 1016.0 0.0
03/07:30pm 13.3 11.4 10.5 83 1.5 ENE 11 13 6 7 1016.5 1016.2 0.0
03/07:00pm 13.6 11.6 10.0 79 1.9 ENE 11 13 6 7 1016.5 1016.2 0.0
03/06:30pm 13.8 11.8 10.0 78 2.0 ENE 11 13 6 7 1016.3 1016.0 0.0
03/06:00pm 13.8 12.5 10.0 78 2.0 ENE 7 9 4 5 1016.4 1016.1 0.0
03/05:30pm 13.9 13.5 9.9 77 2.1 N 2 7 1 4 1016.5 1016.2 0.0
03/05:00pm 15.8 14.8 10.3 70 3.0 NNW 6 9 3 5 1016.5 1016.2 0.0
03/04:30pm 15.8 14.6 10.3 70 2.9 WNW 7 13 4 7 1016.7 1016.5 0.0
03/04:00pm 15.1 13.6 10.5 74 2.5 W 9 13 5 7 1016.6 1016.4 0.0
03/03:30pm 16.3 14.2 11.0 71 2.9 WSW 13 19 7 10 1016.8 1016.6 0.0
03/03:00pm 15.8 14.1 9.7 67 3.2 WNW 9 13 5 7 1016.8 1016.6 0.0
03/02:30pm 16.4 14.9 10.5 68 3.2 NNW 9 15 5 8 1017.0 1016.8 0.0
03/02:00pm 16.1 14.9 10.2 68 3.2 W 7 11 4 6 1017.2 1017.0 0.0
03/01:30pm 16.0 14.7 9.9 67 3.2 NW 7 13 4 7 1017.4 1017.2 0.0
03/01:00pm 16.4 14.9 10.5 68 3.2 NW 9 15 5 8 1017.9 1017.7 0.0
03/12:30pm 16.7 15.0 9.9 64 3.6 WNW 9 19 5 10 1018.1 1017.9 0.0
03/12:00pm 14.8 15.0 10.4 75 2.3 CALM 0 0 0 0 1018.4 1018.2 0.0
03/11:30am 14.6 12.8 9.6 72 2.6 WNW 9 13 5 7 1019.2 1019.0 0.0
03/11:00am 15.6 14.5 10.6 72 2.7 WNW 7 15 4 8 1019.6 1019.4 0.0
03/10:30am 14.2 13.9 10.0 76 2.2 WNW 2 9 1 5 1019.8 1019.6 0.0
03/10:00am 14.4 13.9 12.1 86 1.3 N 6 9 3 5 1020.0 1019.8 0.0
03/09:30am 13.5 12.5 13.5 100 0.0 ENE 11 17 6 9 1019.7 1019.5 0.0
03/09:00am 12.9 11.7 12.9 100 0.0 NE 11 15 6 8 1019.9 1019.7 0.0
03/08:30am 12.0 11.3 12.0 100 0.0 NNE 7 9 4 5 1019.8 1019.6 0.0
03/08:00am 10.8 9.9 10.8 100 0.0 NNE 6 7 3 4 1019.6 1019.4 0.0
03/07:30am 9.4 7.6 9.4 100 0.0 NNE 9 11 5 6 1019.3 1019.1 0.0
03/07:00am 9.2 7.3 9.2 100 0.0 NE 9 11 5 6 1018.9 1018.8 0.0
03/06:30am 9.3 7.5 9.3 100 0.0 NE 9 13 5 7 1018.8 1018.6 0.0
03/06:00am 8.8 6.8 8.8 100 0.0 NNE 9 11 5 6 1018.6 1018.4 0.0
03/05:30am 10.1 10.2 10.1 100 0.0 CALM 0 0 0 0 1018.6 1018.4 0.0
03/05:00am 10.2 9.2 10.2 100 0.0 WNW 6 7 3 4 1018.5 1018.3 0.0
03/04:30am 10.2 9.2 10.2 100 0.0 NNW 6 7 3 4 1018.4 1018.2 0.0
03/04:00am 11.1 10.3 11.1 100 0.0 NW 6 7 3 4 1018.1 1017.9 0.0
03/03:30am 11.3 11.0 11.3 100 0.0 NW 4 9 2 5 1018.0 1017.8 0.0
03/03:00am 11.0 11.3 11.0 100 0.0 CALM 0 0 0 0 1018.2 1018.0 0.0

Latest Capital City Observations: Canberra | Sydney | Melbourne | Brisbane | Adelaide | Perth | Hobart | Darwin

Other Formats:

Comma delimited format used in spreadsheet applications
http://www.bom.gov.au/fwo/IDS60901/IDS60901.94683.axf

JavaScript Object Notation format (JSON) in row-major order
http://www.bom.gov.au/fwo/IDS60901/IDS60901.94683.json